createdAt,value
2023-03-24T00:02:29.327Z,12.68
2023-03-24T00:05:42.076Z,12.35
2023-03-24T00:08:54.938Z,12.73
2023-03-24T00:12:11.611Z,13.30
2023-03-24T00:15:24.490Z,11.65
2023-03-24T00:18:37.631Z,12.60
2023-03-24T00:21:50.011Z,12.73
2023-03-24T00:25:04.203Z,11.85
2023-03-24T00:28:16.687Z,11.05
2023-03-24T00:31:29.447Z,11.20
2023-03-24T00:34:43.379Z,12.27
2023-03-24T00:37:56.114Z,11.15
2023-03-24T00:41:10.772Z,11.60
2023-03-24T00:44:23.522Z,11.32
2023-03-24T00:47:42.131Z,11.60
2023-03-24T00:50:54.878Z,10.88
2023-03-24T00:54:09.437Z,10.90
2023-03-24T00:57:22.347Z,10.90
2023-03-24T01:00:35.902Z,10.60
2023-03-24T01:03:50.991Z,10.63
2023-03-24T01:07:03.969Z,11.32
2023-03-24T01:10:17.164Z,11.00
2023-03-24T01:13:30.274Z,10.45
2023-03-24T01:16:43.417Z,10.45
2023-03-24T01:19:56.540Z,10.20
2023-03-24T01:23:09.352Z,11.18
2023-03-24T01:26:21.790Z,11.55
2023-03-24T01:29:34.681Z,11.07
2023-03-24T01:32:47.385Z,10.98
2023-03-24T01:36:00.457Z,10.90
2023-03-24T01:39:12.898Z,11.43
2023-03-24T01:42:26.923Z,10.60
2023-03-24T01:45:39.492Z,10.68
2023-03-24T01:48:55.296Z,10.50
2023-03-24T01:52:11.797Z,11.32
2023-03-24T01:55:24.539Z,10.68
2023-03-24T01:58:38.296Z,10.57
2023-03-24T02:01:52.318Z,10.93
2023-03-24T02:05:07.446Z,10.70
2023-03-24T02:08:40.867Z,11.07
2023-03-24T02:11:53.661Z,9.80
2023-03-24T02:15:06.740Z,10.70
2023-03-24T02:18:25.938Z,10.65
2023-03-24T02:21:50.637Z,11.15
2023-03-24T02:25:36.607Z,11.60
2023-03-24T02:29:12.028Z,11.18
2023-03-24T02:32:48.504Z,10.95
2023-03-24T02:36:40.586Z,11.63
2023-03-24T02:40:08.203Z,10.80
2023-03-24T02:43:30.923Z,11.20
2023-03-24T02:47:09.013Z,10.77
2023-03-24T02:50:30.837Z,11.38
2023-03-24T02:54:10.920Z,10.77
2023-03-24T02:57:54.987Z,11.15
2023-03-24T03:01:15.882Z,11.00
2023-03-24T03:04:34.333Z,11.02
2023-03-24T03:07:46.894Z,12.15
2023-03-24T03:10:59.576Z,11.55
2023-03-24T03:14:14.609Z,11.55
2023-03-24T03:17:38.258Z,11.20
2023-03-24T03:20:53.087Z,11.55
2023-03-24T03:24:09.418Z,11.07
2023-03-24T03:27:33.128Z,11.93
2023-03-24T03:30:47.697Z,11.82
2023-03-24T03:34:28.493Z,11.05
2023-03-24T03:38:00.419Z,11.63
2023-03-24T03:41:12.953Z,11.45
2023-03-24T03:44:25.682Z,11.68
2023-03-24T03:47:38.238Z,11.82
2023-03-24T03:50:59.896Z,12.50
2023-03-24T03:54:18.991Z,12.32
2023-03-24T03:57:32.112Z,12.68
2023-03-24T04:00:45.406Z,12.43
2023-03-24T04:04:08.850Z,12.10
2023-03-24T04:07:33.717Z,12.57
2023-03-24T04:10:56.833Z,11.80
2023-03-24T04:14:09.195Z,12.75
2023-03-24T04:17:51.116Z,13.20
2023-03-24T04:21:23.322Z,12.27
2023-03-24T04:24:40.355Z,11.68
2023-03-24T04:27:57.063Z,11.95
2023-03-24T04:31:17.909Z,12.90
2023-03-24T04:34:34.068Z,12.90
2023-03-24T04:37:47.397Z,12.25
2023-03-24T04:41:00.232Z,12.10
2023-03-24T04:44:13.226Z,12.43
2023-03-24T04:47:28.447Z,12.23
2023-03-24T04:50:43.525Z,12.05
2023-03-24T04:53:56.335Z,12.37
2023-03-24T04:57:09.224Z,12.18
2023-03-24T05:00:22.017Z,13.05
2023-03-24T05:03:38.149Z,12.48
2023-03-24T05:06:50.797Z,12.98
2023-03-24T05:10:03.851Z,13.13
2023-03-24T05:13:17.260Z,13.45
2023-03-24T05:16:31.118Z,13.25
2023-03-24T05:19:43.729Z,12.95
2023-03-24T05:22:56.349Z,12.52
2023-03-24T05:26:10.632Z,12.32
2023-03-24T05:29:24.949Z,12.55
2023-03-24T05:32:37.422Z,12.90
2023-03-24T05:35:50.168Z,12.57
2023-03-24T05:39:02.588Z,12.65
2023-03-24T05:42:17.341Z,19.23
2023-03-24T05:45:30.445Z,20.02
2023-03-24T05:48:43.867Z,16.37
2023-03-24T05:51:56.569Z,14.40
2023-03-24T05:55:09.561Z,13.70
2023-03-24T05:58:22.123Z,13.32
2023-03-24T06:01:34.979Z,13.25
2023-03-24T06:04:49.225Z,13.25
2023-03-24T06:08:01.916Z,11.93
2023-03-24T06:11:14.780Z,12.45
2023-03-24T06:14:29.300Z,12.40
2023-03-24T06:17:44.693Z,12.70
2023-03-24T06:20:58.051Z,12.18
2023-03-24T06:24:14.855Z,12.55
2023-03-24T06:27:30.236Z,12.15
2023-03-24T06:30:46.996Z,11.82
2023-03-24T06:34:00.665Z,12.32
2023-03-24T06:37:14.689Z,12.65
2023-03-24T06:40:27.577Z,11.48
2023-03-24T06:43:40.691Z,12.37
2023-03-24T06:46:53.198Z,11.57
2023-03-24T06:50:07.107Z,12.48
2023-03-24T06:53:21.857Z,12.30
2023-03-24T06:56:34.938Z,11.77
2023-03-24T06:59:47.480Z,11.82
2023-03-24T07:03:02.493Z,11.32
2023-03-24T07:06:15.276Z,11.27
2023-03-24T07:09:28.073Z,11.10
2023-03-24T07:12:40.589Z,11.32
2023-03-24T07:15:53.260Z,11.85
2023-03-24T07:19:05.667Z,12.30
2023-03-24T07:22:19.188Z,11.68
2023-03-24T07:25:33.620Z,11.50
2023-03-24T07:28:46.696Z,10.73
2023-03-24T07:32:01.029Z,11.18
2023-03-24T07:35:13.990Z,10.93
2023-03-24T07:38:26.512Z,10.85
2023-03-24T07:41:39.489Z,10.15
2023-03-24T07:44:53.609Z,10.77
2023-03-24T07:48:06.993Z,10.55
2023-03-24T07:51:20.113Z,9.60
2023-03-24T07:54:34.408Z,10.55
2023-03-24T07:57:47.312Z,9.80
2023-03-24T08:00:59.960Z,8.25
2023-03-24T08:04:14.007Z,8.20
2023-03-24T08:07:27.517Z,8.32
2023-03-24T08:10:40.157Z,8.70
2023-03-24T08:13:52.844Z,8.00
2023-03-24T08:17:05.702Z,8.13
2023-03-24T08:20:19.484Z,8.15
2023-03-24T08:23:32.563Z,8.38
2023-03-24T08:26:46.801Z,7.53
2023-03-24T08:29:59.418Z,7.25
2023-03-24T08:33:13.404Z,6.82
2023-03-24T08:36:26.666Z,6.90
2023-03-24T08:39:39.047Z,5.65
2023-03-24T08:42:56.187Z,5.65
2023-03-24T08:46:10.535Z,5.68
2023-03-24T08:49:24.535Z,5.47
2023-03-24T08:52:37.007Z,6.30
2023-03-24T08:55:49.742Z,6.20
2023-03-24T08:59:02.249Z,5.75
2023-03-24T09:02:14.942Z,6.03
2023-03-24T09:05:43.281Z,5.72
2023-03-24T09:09:00.203Z,5.72
2023-03-24T09:12:12.584Z,5.82
2023-03-24T09:15:25.471Z,5.18
2023-03-24T09:18:37.939Z,5.60
2023-03-24T09:21:50.673Z,5.22
2023-03-24T09:25:03.047Z,5.95
2023-03-24T09:28:16.309Z,5.05
2023-03-24T09:31:28.713Z,4.97
2023-03-24T09:34:41.665Z,4.93
2023-03-24T09:37:54.964Z,5.03
2023-03-24T09:41:15.514Z,5.65
2023-03-24T09:44:30.037Z,6.37
2023-03-24T09:47:44.453Z,6.12
2023-03-24T09:51:13.796Z,5.78
2023-03-24T09:54:35.792Z,5.72
2023-03-24T09:57:48.683Z,5.55
2023-03-24T10:01:01.392Z,5.75
2023-03-24T10:04:17.556Z,6.07
2023-03-24T10:07:34.615Z,5.70
2023-03-24T10:14:13.075Z,5.78
2023-03-24T10:18:05.993Z,4.93
2023-03-24T10:21:25.080Z,5.50
2023-03-24T10:24:45.596Z,5.95
2023-03-24T10:28:08.560Z,4.75
2023-03-24T10:31:33.579Z,5.10
2023-03-24T10:34:46.963Z,4.70
2023-03-24T10:38:00.969Z,4.55
2023-03-24T10:41:24.571Z,4.95
2023-03-24T10:44:37.370Z,4.45
2023-03-24T10:47:49.895Z,4.07
2023-03-24T10:51:03.086Z,4.80
2023-03-24T10:54:18.410Z,4.68
2023-03-24T10:57:31.186Z,3.80
2023-03-24T11:00:44.069Z,3.83
2023-03-24T11:04:01.331Z,3.92
2023-03-24T11:07:24.896Z,3.72
2023-03-24T11:10:37.976Z,3.58
2023-03-24T11:13:58.419Z,3.75
2023-03-24T11:17:12.385Z,3.62
2023-03-24T11:20:31.012Z,3.35
2023-03-24T11:23:45.632Z,3.30
2023-03-24T11:27:03.752Z,3.28
2023-03-24T11:30:16.594Z,2.87
2023-03-24T11:33:34.427Z,2.70
2023-03-24T11:36:56.168Z,2.70
2023-03-24T11:40:24.456Z,2.60
2023-03-24T11:43:37.064Z,2.90
2023-03-24T11:46:56.118Z,2.90
2023-03-24T11:50:11.949Z,2.45
2023-03-24T11:53:26.683Z,2.75
2023-03-24T11:57:04.540Z,2.40
2023-03-24T12:00:34.948Z,2.50
2023-03-24T12:04:19.057Z,2.42
2023-03-24T12:07:48.551Z,2.60
2023-03-24T12:11:35.305Z,2.58
2023-03-24T12:15:17.342Z,2.62
2023-03-24T12:19:02.426Z,2.65
2023-03-24T12:22:30.477Z,2.45
2023-03-24T12:25:51.835Z,2.67
2023-03-24T12:29:24.009Z,3.03
2023-03-24T12:32:56.450Z,2.20
2023-03-24T12:36:08.911Z,2.42
2023-03-24T12:39:28.924Z,2.60
2023-03-24T12:42:43.605Z,2.30
2023-03-24T12:45:56.641Z,2.47
2023-03-24T12:49:27.727Z,2.60
2023-03-24T12:53:06.705Z,2.37
2023-03-24T12:56:33.059Z,2.45
2023-03-24T12:59:59.920Z,2.47
2023-03-24T13:03:18.795Z,2.35
2023-03-24T13:06:45.480Z,2.30
2023-03-24T13:10:05.179Z,2.60
2023-03-24T13:13:23.612Z,2.60
2023-03-24T13:16:36.147Z,2.60
2023-03-24T13:19:49.772Z,2.67
2023-03-24T13:23:19.328Z,2.55
2023-03-24T13:26:39.472Z,2.60
2023-03-24T13:30:07.392Z,2.53
2023-03-24T13:33:26.602Z,2.03
2023-03-24T13:36:46.937Z,2.12
2023-03-24T13:40:01.953Z,2.72
2023-03-24T13:43:18.883Z,2.97
2023-03-24T13:46:31.544Z,2.80
2023-03-24T13:49:59.214Z,2.37
2023-03-24T13:53:14.056Z,2.37
2023-03-24T13:56:37.215Z,2.37
2023-03-24T14:00:08.634Z,2.75
2023-03-24T14:03:47.604Z,2.40
2023-03-24T14:07:00.465Z,2.53
2023-03-24T14:10:20.762Z,2.70
2023-03-24T14:13:34.808Z,2.50
2023-03-24T14:17:06.108Z,2.83
2023-03-24T14:20:33.096Z,2.20
2023-03-24T14:23:51.586Z,2.10
2023-03-24T14:27:23.688Z,2.50
2023-03-24T14:30:40.744Z,2.20
2023-03-24T14:37:07.658Z,2.37
2023-03-24T14:40:29.852Z,2.47
2023-03-24T14:43:42.501Z,2.05
2023-03-24T14:46:54.930Z,2.10
2023-03-24T14:50:22.019Z,2.50
2023-03-24T14:53:40.684Z,2.47
2023-03-24T14:56:54.299Z,2.30
2023-03-24T15:00:30.480Z,2.00
2023-03-24T15:03:55.822Z,2.30
2023-03-24T15:07:10.686Z,2.17
2023-03-24T15:10:23.417Z,2.30
2023-03-24T15:13:49.048Z,2.47
2023-03-24T15:17:06.606Z,2.30
2023-03-24T15:20:24.072Z,2.30
2023-03-24T15:23:36.685Z,2.10
2023-03-24T15:26:49.983Z,2.70
2023-03-24T15:30:02.845Z,2.50
2023-03-24T15:33:15.336Z,2.60
2023-03-24T15:36:28.148Z,2.92
2023-03-24T15:39:41.194Z,2.50
2023-03-24T15:42:55.357Z,2.83
2023-03-24T15:46:20.339Z,2.62
2023-03-24T15:49:33.900Z,3.65
2023-03-24T15:52:46.216Z,3.20
2023-03-24T15:56:20.048Z,3.20
2023-03-24T15:59:36.991Z,2.67
2023-03-24T16:02:52.436Z,3.67
2023-03-24T16:06:15.556Z,3.00
2023-03-24T16:09:38.031Z,2.97
2023-03-24T16:12:50.760Z,2.75
2023-03-24T16:16:15.167Z,3.70
2023-03-24T16:19:28.598Z,3.12
2023-03-24T16:22:41.936Z,2.80
2023-03-24T16:25:54.655Z,2.97
2023-03-24T16:29:16.853Z,3.40
2023-03-24T16:32:29.540Z,3.42
2023-03-24T16:35:41.916Z,3.33
2023-03-24T16:38:55.392Z,4.85
2023-03-24T16:42:07.825Z,5.53
2023-03-24T16:45:20.709Z,5.28
2023-03-24T16:48:33.076Z,4.87
2023-03-24T16:51:46.006Z,4.60
2023-03-24T16:54:58.309Z,7.40
2023-03-24T16:58:12.595Z,8.40
2023-03-24T17:01:44.500Z,10.98
2023-03-24T17:04:57.171Z,9.55
2023-03-24T17:08:10.468Z,6.85
2023-03-24T17:11:26.846Z,11.48
2023-03-24T17:14:39.237Z,10.17
2023-03-24T17:17:51.892Z,18.70
2023-03-24T17:21:04.360Z,15.05
2023-03-24T17:24:17.003Z,10.70
2023-03-24T17:27:29.378Z,15.07
2023-03-24T17:30:42.187Z,20.30
2023-03-24T17:33:54.586Z,63.50
2023-03-24T17:37:07.201Z,30.77
2023-03-24T17:40:20.425Z,17.98
2023-03-24T17:43:33.561Z,13.93
2023-03-24T17:46:46.035Z,12.35
2023-03-24T17:49:58.728Z,12.90
2023-03-24T17:53:13.805Z,10.55
2023-03-24T17:56:26.484Z,10.55
2023-03-24T17:59:39.022Z,10.48
2023-03-24T18:02:52.748Z,9.35
2023-03-24T18:06:09.372Z,8.90
2023-03-24T18:09:22.106Z,9.27
2023-03-24T18:12:35.860Z,9.13
2023-03-24T18:15:48.227Z,8.85
2023-03-24T18:19:01.794Z,9.77
2023-03-24T18:22:14.166Z,9.43
2023-03-24T18:25:26.859Z,11.05
2023-03-24T18:28:39.240Z,9.95
2023-03-24T18:31:51.917Z,10.68
2023-03-24T18:35:06.326Z,11.07
2023-03-24T18:38:22.563Z,14.90
2023-03-24T18:41:37.247Z,17.17
2023-03-24T18:44:50.076Z,14.30
2023-03-24T18:48:02.400Z,16.42
2023-03-24T18:51:15.743Z,17.05
2023-03-24T18:54:28.084Z,26.05
2023-03-24T18:57:41.193Z,25.77
2023-03-24T19:00:55.050Z,25.42
2023-03-24T19:04:09.333Z,23.17
2023-03-24T19:07:26.269Z,25.85
2023-03-24T19:10:39.246Z,21.70
2023-03-24T19:13:52.112Z,21.58
2023-03-24T19:17:04.847Z,21.87
2023-03-24T19:20:17.193Z,12.82
2023-03-24T19:23:29.988Z,19.80
2023-03-24T19:26:42.354Z,18.85
2023-03-24T19:29:54.968Z,18.52
2023-03-24T19:33:07.370Z,19.55
2023-03-24T19:36:20.074Z,18.17
2023-03-24T19:39:32.440Z,16.27
2023-03-24T19:42:45.281Z,17.95
2023-03-24T19:45:58.499Z,17.77
2023-03-24T19:49:11.192Z,10.13
2023-03-24T19:52:23.501Z,11.55
2023-03-24T19:55:36.367Z,9.93
2023-03-24T19:58:48.857Z,8.93
2023-03-24T20:02:01.814Z,11.50
2023-03-24T20:05:15.115Z,13.95
2023-03-24T20:08:27.497Z,10.25
2023-03-24T20:11:42.769Z,11.18
2023-03-24T20:14:55.666Z,7.68
2023-03-24T20:18:10.188Z,6.93
2023-03-24T20:21:22.836Z,7.45
2023-03-24T20:24:38.620Z,6.62
2023-03-24T20:27:51.003Z,6.43
2023-03-24T20:31:03.865Z,7.15
2023-03-24T20:34:17.308Z,6.57
2023-03-24T20:37:31.019Z,6.75
2023-03-24T20:40:43.318Z,7.60
2023-03-24T20:43:56.378Z,7.18
2023-03-24T20:47:08.846Z,7.45
2023-03-24T20:50:21.490Z,6.28
2023-03-24T20:53:34.882Z,6.30
2023-03-24T20:56:49.907Z,6.57
2023-03-24T21:00:02.404Z,6.45
2023-03-24T21:03:15.089Z,6.95
2023-03-24T21:06:27.483Z,6.53
2023-03-24T21:09:40.190Z,6.32
2023-03-24T21:12:54.675Z,7.07
2023-03-24T21:16:08.833Z,8.32
2023-03-24T21:19:22.858Z,7.70
2023-03-24T21:22:47.508Z,7.45
2023-03-24T21:26:03.238Z,8.95
2023-03-24T21:29:15.925Z,8.57
2023-03-24T21:32:28.273Z,8.57
2023-03-24T21:35:41.220Z,7.55
2023-03-24T21:38:54.132Z,7.10
2023-03-24T21:42:07.530Z,7.03
2023-03-24T21:45:21.076Z,8.02
2023-03-24T21:48:35.072Z,7.55
2023-03-24T21:51:47.900Z,7.97
2023-03-24T21:55:00.893Z,7.43
2023-03-24T21:58:13.205Z,8.13
2023-03-24T22:01:26.257Z,7.97
2023-03-24T22:04:41.702Z,8.65
2023-03-24T22:07:54.042Z,8.35
2023-03-24T22:11:06.819Z,9.00
2023-03-24T22:14:20.140Z,8.82
2023-03-24T22:17:32.944Z,9.18
2023-03-24T22:20:57.025Z,9.30
2023-03-24T22:24:09.683Z,7.85
2023-03-24T22:27:21.985Z,8.40
2023-03-24T22:30:34.618Z,11.82
2023-03-24T22:33:48.042Z,10.07
2023-03-24T22:37:00.877Z,9.10
2023-03-24T22:40:13.188Z,9.32
2023-03-24T22:43:26.488Z,9.00
2023-03-24T22:46:38.949Z,9.40
2023-03-24T22:49:51.721Z,9.38
2023-03-24T22:53:04.116Z,8.98
2023-03-24T22:56:16.788Z,8.52
2023-03-24T22:59:32.414Z,8.88
2023-03-24T23:02:45.170Z,8.32
2023-03-24T23:05:58.882Z,7.97
2023-03-24T23:09:11.831Z,7.90
2023-03-24T23:12:25.060Z,6.70
2023-03-24T23:15:42.824Z,8.07
2023-03-24T23:18:56.068Z,8.10
2023-03-24T23:22:08.928Z,9.35
2023-03-24T23:25:21.370Z,9.23
2023-03-24T23:28:34.195Z,8.15
2023-03-24T23:31:46.540Z,8.88
2023-03-24T23:35:02.714Z,9.68
2023-03-24T23:38:15.405Z,8.80
2023-03-24T23:41:28.109Z,8.90
2023-03-24T23:44:40.584Z,7.45
2023-03-24T23:47:53.547Z,8.13
2023-03-24T23:51:07.603Z,8.50
2023-03-24T23:54:20.386Z,8.52
2023-03-24T23:57:33.167Z,8.70
